sensor_id;sensor_type;location;lat;lon;timestamp;pressure;altitude;pressure_sealevel;temperature;humidity
40954;BME280;26686;50.130;8.710;2023-06-04T00:00:29;100361.66;;;18.04;35.84
40954;BME280;26686;50.130;8.710;2023-06-04T00:05:32;100364.19;;;17.97;36.15
40954;BME280;26686;50.130;8.710;2023-06-04T00:10:33;100363.50;;;17.95;36.13
40954;BME280;26686;50.130;8.710;2023-06-04T00:15:35;100355.75;;;17.84;36.25
40954;BME280;26686;50.130;8.710;2023-06-04T00:20:37;100351.03;;;17.86;36.22
40954;BME280;26686;50.130;8.710;2023-06-04T00:25:38;100353.22;;;17.74;36.37
40954;BME280;26686;50.130;8.710;2023-06-04T00:30:40;100367.69;;;17.73;36.69
40954;BME280;26686;50.130;8.710;2023-06-04T00:35:42;100367.16;;;17.70;36.67
40954;BME280;26686;50.130;8.710;2023-06-04T00:40:44;100358.78;;;17.64;36.73
40954;BME280;26686;50.130;8.710;2023-06-04T00:45:46;100368.50;;;17.57;37.08
40954;BME280;26686;50.130;8.710;2023-06-04T00:50:48;100367.16;;;17.53;37.31
40954;BME280;26686;50.130;8.710;2023-06-04T00:55:50;100370.34;;;17.40;37.49
40954;BME280;26686;50.130;8.710;2023-06-04T01:00:54;100365.13;;;17.39;37.36
40954;BME280;26686;50.130;8.710;2023-06-04T01:06:13;100361.75;;;17.28;37.78
40954;BME280;26686;50.130;8.710;2023-06-04T01:11:34;100367.28;;;16.84;38.71
40954;BME280;26686;50.130;8.710;2023-06-04T01:16:43;100362.31;;;16.98;38.65
40954;BME280;26686;50.130;8.710;2023-06-04T01:21:49;100362.84;;;17.01;38.46
40954;BME280;26686;50.130;8.710;2023-06-04T01:26:53;100360.50;;;17.06;38.03
40954;BME280;26686;50.130;8.710;2023-06-04T01:31:58;100355.44;;;17.03;38.24
40954;BME280;26686;50.130;8.710;2023-06-04T01:37:00;100358.22;;;16.85;38.64
40954;BME280;26686;50.130;8.710;2023-06-04T01:42:01;100349.59;;;16.73;38.84
40954;BME280;26686;50.130;8.710;2023-06-04T01:47:04;100351.28;;;16.74;39.03
40954;BME280;26686;50.130;8.710;2023-06-04T01:52:05;100349.44;;;16.75;38.64
40954;BME280;26686;50.130;8.710;2023-06-04T01:57:08;100356.13;;;16.71;38.92
40954;BME280;26686;50.130;8.710;2023-06-04T02:02:11;100358.94;;;16.61;39.04
40954;BME280;26686;50.130;8.710;2023-06-04T02:07:13;100355.69;;;16.49;39.52
40954;BME280;26686;50.130;8.710;2023-06-04T02:12:21;100360.81;;;16.34;39.66
40954;BME280;26686;50.130;8.710;2023-06-04T02:17:23;100348.19;;;16.35;39.61
40954;BME280;26686;50.130;8.710;2023-06-04T02:22:25;100349.88;;;16.28;39.91
40954;BME280;26686;50.130;8.710;2023-06-04T02:27:27;100362.91;;;16.22;40.65
40954;BME280;26686;50.130;8.710;2023-06-04T02:32:29;100346.31;;;16.01;40.70
40954;BME280;26686;50.130;8.710;2023-06-04T02:37:30;100352.69;;;16.00;40.58
40954;BME280;26686;50.130;8.710;2023-06-04T02:42:32;100360.22;;;15.96;40.53
40954;BME280;26686;50.130;8.710;2023-06-04T02:47:34;100357.13;;;15.91;40.85
40954;BME280;26686;50.130;8.710;2023-06-04T02:52:35;100358.94;;;15.82;40.87
40954;BME280;26686;50.130;8.710;2023-06-04T02:57:42;100358.63;;;15.85;40.82
40954;BME280;26686;50.130;8.710;2023-06-04T03:02:46;100360.09;;;15.80;41.09
40954;BME280;26686;50.130;8.710;2023-06-04T03:07:48;100352.22;;;15.50;41.96
40954;BME280;26686;50.130;8.710;2023-06-04T03:12:50;100353.56;;;15.64;41.62
40954;BME280;26686;50.130;8.710;2023-06-04T03:17:52;100352.53;;;15.47;41.88
40954;BME280;26686;50.130;8.710;2023-06-04T03:22:54;100351.31;;;15.60;41.61
40954;BME280;26686;50.130;8.710;2023-06-04T03:27:55;100347.31;;;15.64;41.97
40954;BME280;26686;50.130;8.710;2023-06-04T03:32:57;100353.31;;;15.58;41.93
40954;BME280;26686;50.130;8.710;2023-06-04T03:37:59;100352.38;;;15.49;42.22
40954;BME280;26686;50.130;8.710;2023-06-04T03:43:01;100359.59;;;15.48;41.74
40954;BME280;26686;50.130;8.710;2023-06-04T03:48:05;100360.75;;;15.46;42.24
40954;BME280;26686;50.130;8.710;2023-06-04T03:53:06;100367.13;;;15.45;42.10
40954;BME280;26686;50.130;8.710;2023-06-04T03:58:09;100368.78;;;15.28;42.53
40954;BME280;26686;50.130;8.710;2023-06-04T04:03:12;100363.19;;;15.21;43.06
40954;BME280;26686;50.130;8.710;2023-06-04T04:08:14;100373.53;;;15.34;42.92
40954;BME280;26686;50.130;8.710;2023-06-04T04:13:18;100370.63;;;15.27;43.19
40954;BME280;26686;50.130;8.710;2023-06-04T04:18:20;100374.38;;;15.16;43.28
40954;BME280;26686;50.130;8.710;2023-06-04T04:23:23;100365.75;;;15.13;43.09
40954;BME280;26686;50.130;8.710;2023-06-04T04:28:25;100377.91;;;15.07;43.19
40954;BME280;26686;50.130;8.710;2023-06-04T04:33:30;100380.19;;;15.12;43.31
40954;BME280;26686;50.130;8.710;2023-06-04T04:38:38;100379.00;;;15.14;43.80
40954;BME280;26686;50.130;8.710;2023-06-04T04:43:39;100384.03;;;15.27;43.66
40954;BME280;26686;50.130;8.710;2023-06-04T04:48:41;100376.13;;;15.26;43.14
40954;BME280;26686;50.130;8.710;2023-06-04T04:53:43;100383.25;;;15.17;43.93
40954;BME280;26686;50.130;8.710;2023-06-04T04:58:45;100391.00;;;15.38;43.14
40954;BME280;26686;50.130;8.710;2023-06-04T05:03:48;100398.13;;;15.29;43.59
40954;BME280;26686;50.130;8.710;2023-06-04T05:08:49;100407.78;;;15.40;43.18
40954;BME280;26686;50.130;8.710;2023-06-04T05:13:51;100398.75;;;15.41;43.38
40954;BME280;26686;50.130;8.710;2023-06-04T05:18:53;100416.09;;;15.47;43.28
40954;BME280;26686;50.130;8.710;2023-06-04T05:23:54;100420.47;;;15.66;43.39
40954;BME280;26686;50.130;8.710;2023-06-04T05:28:56;100429.28;;;15.76;43.10
40954;BME280;26686;50.130;8.710;2023-06-04T05:34:00;100430.84;;;15.79;43.25
40954;BME280;26686;50.130;8.710;2023-06-04T05:39:09;100429.31;;;15.94;42.82
40954;BME280;26686;50.130;8.710;2023-06-04T05:44:10;100447.03;;;16.05;42.85
40954;BME280;26686;50.130;8.710;2023-06-04T05:49:12;100435.69;;;16.11;42.64
40954;BME280;26686;50.130;8.710;2023-06-04T05:54:14;100441.19;;;16.28;42.47
40954;BME280;26686;50.130;8.710;2023-06-04T05:59:15;100442.22;;;16.35;42.63
40954;BME280;26686;50.130;8.710;2023-06-04T06:04:17;100444.66;;;16.46;42.29
40954;BME280;26686;50.130;8.710;2023-06-04T06:09:19;100443.56;;;16.57;42.25
40954;BME280;26686;50.130;8.710;2023-06-04T06:14:21;100440.78;;;16.67;42.31
40954;BME280;26686;50.130;8.710;2023-06-04T06:19:24;100442.03;;;16.81;42.24
40954;BME280;26686;50.130;8.710;2023-06-04T06:24:26;100448.00;;;16.92;41.99
40954;BME280;26686;50.130;8.710;2023-06-04T06:29:27;100448.41;;;17.06;40.98
40954;BME280;26686;50.130;8.710;2023-06-04T06:34:29;100454.53;;;17.24;40.96
40954;BME280;26686;50.130;8.710;2023-06-04T06:39:31;100457.78;;;17.36;39.99
40954;BME280;26686;50.130;8.710;2023-06-04T06:44:33;100455.63;;;17.48;40.83
40954;BME280;26686;50.130;8.710;2023-06-04T06:49:35;100465.09;;;17.69;40.13
40954;BME280;26686;50.130;8.710;2023-06-04T06:54:37;100472.88;;;17.88;40.08
40954;BME280;26686;50.130;8.710;2023-06-04T06:59:38;100466.69;;;18.04;39.44
40954;BME280;26686;50.130;8.710;2023-06-04T07:04:40;100467.56;;;18.21;38.87
40954;BME280;26686;50.130;8.710;2023-06-04T07:09:42;100472.28;;;18.44;37.96
40954;BME280;26686;50.130;8.710;2023-06-04T07:14:44;100473.91;;;18.61;36.35
40954;BME280;26686;50.130;8.710;2023-06-04T07:19:46;100489.22;;;18.77;36.42
40954;BME280;26686;50.130;8.710;2023-06-04T07:24:48;100484.00;;;18.76;36.76
40954;BME280;26686;50.130;8.710;2023-06-04T07:29:49;100489.22;;;18.85;37.33
40954;BME280;26686;50.130;8.710;2023-06-04T07:34:51;100466.44;;;19.13;36.91
40954;BME280;26686;50.130;8.710;2023-06-04T07:39:52;100474.47;;;19.21;36.78
40954;BME280;26686;50.130;8.710;2023-06-04T07:44:54;100473.22;;;19.40;37.31
40954;BME280;26686;50.130;8.710;2023-06-04T07:49:56;100478.63;;;19.71;37.09
40954;BME280;26686;50.130;8.710;2023-06-04T07:55:04;100484.97;;;19.87;36.50
40954;BME280;26686;50.130;8.710;2023-06-04T08:00:07;100481.16;;;20.04;35.48
40954;BME280;26686;50.130;8.710;2023-06-04T08:05:09;100474.22;;;20.25;35.18
40954;BME280;26686;50.130;8.710;2023-06-04T08:10:11;100472.97;;;20.51;35.50
40954;BME280;26686;50.130;8.710;2023-06-04T08:15:13;100470.13;;;20.67;35.26
40954;BME280;26686;50.130;8.710;2023-06-04T08:20:14;100467.06;;;20.85;34.77
40954;BME280;26686;50.130;8.710;2023-06-04T08:25:16;100459.34;;;20.97;34.42
40954;BME280;26686;50.130;8.710;2023-06-04T08:30:18;100474.19;;;21.16;34.00
40954;BME280;26686;50.130;8.710;2023-06-04T08:35:20;100466.44;;;21.28;34.31
40954;BME280;26686;50.130;8.710;2023-06-04T08:40:22;100469.88;;;21.51;34.12
40954;BME280;26686;50.130;8.710;2023-06-04T08:45:24;100475.75;;;21.55;33.95
40954;BME280;26686;50.130;8.710;2023-06-04T08:50:26;100474.16;;;21.82;33.61
40954;BME280;26686;50.130;8.710;2023-06-04T08:55:28;100472.69;;;22.01;33.54
40954;BME280;26686;50.130;8.710;2023-06-04T09:00:32;100479.09;;;21.94;33.29
40954;BME280;26686;50.130;8.710;2023-06-04T09:05:34;100480.88;;;22.08;33.28
40954;BME280;26686;50.130;8.710;2023-06-04T09:10:37;100494.09;;;22.33;34.53
40954;BME280;26686;50.130;8.710;2023-06-04T09:15:39;100478.25;;;22.58;33.16
40954;BME280;26686;50.130;8.710;2023-06-04T09:20:41;100488.00;;;22.81;32.83
40954;BME280;26686;50.130;8.710;2023-06-04T09:25:42;100479.50;;;22.90;31.64
40954;BME280;26686;50.130;8.710;2023-06-04T09:30:52;100490.13;;;23.20;31.05
40954;BME280;26686;50.130;8.710;2023-06-04T09:35:56;100478.31;;;23.41;29.44
40954;BME280;26686;50.130;8.710;2023-06-04T09:40:58;100465.81;;;23.47;29.04
40954;BME280;26686;50.130;8.710;2023-06-04T09:46:15;100475.91;;;23.73;28.76
40954;BME280;26686;50.130;8.710;2023-06-04T09:51:17;100463.88;;;23.89;27.92
40954;BME280;26686;50.130;8.710;2023-06-04T09:56:21;100472.25;;;24.08;27.23
40954;BME280;26686;50.130;8.710;2023-06-04T10:01:24;100459.94;;;24.25;27.31
40954;BME280;26686;50.130;8.710;2023-06-04T10:06:32;100458.91;;;24.53;26.66
40954;BME280;26686;50.130;8.710;2023-06-04T10:11:40;100455.97;;;24.61;26.71
40954;BME280;26686;50.130;8.710;2023-06-04T10:16:43;100451.97;;;24.91;25.60
40954;BME280;26686;50.130;8.710;2023-06-04T10:21:45;100447.94;;;24.93;26.39
40954;BME280;26686;50.130;8.710;2023-06-04T10:26:47;100450.47;;;25.01;25.77
40954;BME280;26686;50.130;8.710;2023-06-04T10:31:53;100449.97;;;25.18;24.85
40954;BME280;26686;50.130;8.710;2023-06-04T10:36:56;100432.41;;;25.14;25.49
40954;BME280;26686;50.130;8.710;2023-06-04T10:42:01;100444.84;;;25.48;26.08
40954;BME280;26686;50.130;8.710;2023-06-04T10:47:04;100445.59;;;25.62;24.70
40954;BME280;26686;50.130;8.710;2023-06-04T10:52:12;100447.22;;;25.76;25.19
40954;BME280;26686;50.130;8.710;2023-06-04T10:57:16;100441.00;;;25.94;25.14
40954;BME280;26686;50.130;8.710;2023-06-04T11:02:18;100439.50;;;26.05;24.42
40954;BME280;26686;50.130;8.710;2023-06-04T11:07:20;100434.41;;;26.09;24.00
40954;BME280;26686;50.130;8.710;2023-06-04T11:12:21;100434.81;;;26.13;23.00
40954;BME280;26686;50.130;8.710;2023-06-04T11:17:23;100429.19;;;26.07;23.79
40954;BME280;26686;50.130;8.710;2023-06-04T11:22:25;100443.13;;;26.24;24.18
40954;BME280;26686;50.130;8.710;2023-06-04T11:27:28;100441.59;;;26.54;23.66
40954;BME280;26686;50.130;8.710;2023-06-04T11:32:37;100430.66;;;26.54;23.64
40954;BME280;26686;50.130;8.710;2023-06-04T11:37:40;100427.34;;;26.52;23.13
40954;BME280;26686;50.130;8.710;2023-06-04T11:42:41;100427.78;;;26.49;24.17
40954;BME280;26686;50.130;8.710;2023-06-04T11:47:47;100419.69;;;26.60;23.35
40954;BME280;26686;50.130;8.710;2023-06-04T11:52:52;100424.22;;;26.73;24.04
40954;BME280;26686;50.130;8.710;2023-06-04T11:57:54;100415.72;;;26.81;24.16
40954;BME280;26686;50.130;8.710;2023-06-04T12:02:56;100404.81;;;26.81;23.84
40954;BME280;26686;50.130;8.710;2023-06-04T12:08:05;100412.91;;;26.70;23.67
40954;BME280;26686;50.130;8.710;2023-06-04T12:13:08;100398.69;;;26.61;23.56
40954;BME280;26686;50.130;8.710;2023-06-04T12:18:10;100403.09;;;26.62;22.89
40954;BME280;26686;50.130;8.710;2023-06-04T12:23:19;100392.13;;;26.69;23.18
40954;BME280;26686;50.130;8.710;2023-06-04T12:28:21;100397.22;;;26.84;23.93
40954;BME280;26686;50.130;8.710;2023-06-04T12:33:22;100395.41;;;26.77;22.33
40954;BME280;26686;50.130;8.710;2023-06-04T12:38:24;100395.25;;;26.72;22.77
40954;BME280;26686;50.130;8.710;2023-06-04T12:43:25;100402.38;;;26.73;23.53
40954;BME280;26686;50.130;8.710;2023-06-04T12:48:27;100397.97;;;26.72;23.29
40954;BME280;26686;50.130;8.710;2023-06-04T12:53:28;100396.63;;;26.38;23.16
40954;BME280;26686;50.130;8.710;2023-06-04T12:58:30;100385.13;;;26.54;23.45
40954;BME280;26686;50.130;8.710;2023-06-04T13:03:32;100377.44;;;26.63;23.44
40954;BME280;26686;50.130;8.710;2023-06-04T13:08:34;100380.22;;;26.81;23.88
40954;BME280;26686;50.130;8.710;2023-06-04T13:13:36;100376.88;;;26.79;23.56
40954;BME280;26686;50.130;8.710;2023-06-04T13:18:38;100370.50;;;26.67;21.77
40954;BME280;26686;50.130;8.710;2023-06-04T13:23:40;100372.31;;;26.55;23.63
40954;BME280;26686;50.130;8.710;2023-06-04T13:28:51;100368.66;;;26.61;23.43
40954;BME280;26686;50.130;8.710;2023-06-04T13:33:53;100356.53;;;26.57;23.73
40954;BME280;26686;50.130;8.710;2023-06-04T13:38:54;100363.50;;;26.53;24.49
40954;BME280;26686;50.130;8.710;2023-06-04T13:43:56;100366.38;;;26.58;24.08
40954;BME280;26686;50.130;8.710;2023-06-04T13:48:57;100363.44;;;26.41;24.21
40954;BME280;26686;50.130;8.710;2023-06-04T13:53:59;100359.84;;;26.40;23.67
40954;BME280;26686;50.130;8.710;2023-06-04T13:59:00;100343.00;;;26.25;23.99
40954;BME280;26686;50.130;8.710;2023-06-04T14:04:02;100342.34;;;26.29;23.80
40954;BME280;26686;50.130;8.710;2023-06-04T14:09:07;100341.97;;;26.26;23.39
40954;BME280;26686;50.130;8.710;2023-06-04T14:14:10;100336.56;;;26.19;23.52
40954;BME280;26686;50.130;8.710;2023-06-04T14:19:13;100332.00;;;26.13;24.35
40954;BME280;26686;50.130;8.710;2023-06-04T14:24:14;100339.59;;;26.11;23.80
40954;BME280;26686;50.130;8.710;2023-06-04T14:29:16;100331.63;;;26.09;23.72
40954;BME280;26686;50.130;8.710;2023-06-04T14:34:17;100327.53;;;26.00;23.63
40954;BME280;26686;50.130;8.710;2023-06-04T14:39:19;100327.53;;;26.00;23.58
40954;BME280;26686;50.130;8.710;2023-06-04T14:44:23;100322.44;;;26.04;23.60
40954;BME280;26686;50.130;8.710;2023-06-04T14:49:24;100314.41;;;25.84;22.87
40954;BME280;26686;50.130;8.710;2023-06-04T14:54:26;100308.97;;;25.84;22.99
40954;BME280;26686;50.130;8.710;2023-06-04T14:59:28;100316.28;;;25.83;22.64
40954;BME280;26686;50.130;8.710;2023-06-04T15:04:29;100313.78;;;25.82;22.64
40954;BME280;26686;50.130;8.710;2023-06-04T15:09:30;100309.69;;;25.72;23.29
40954;BME280;26686;50.130;8.710;2023-06-04T15:14:32;100301.50;;;25.72;22.96
40954;BME280;26686;50.130;8.710;2023-06-04T15:19:33;100308.00;;;25.71;24.56
40954;BME280;26686;50.130;8.710;2023-06-04T15:24:35;100305.50;;;25.70;24.14
40954;BME280;26686;50.130;8.710;2023-06-04T15:29:36;100299.22;;;25.69;23.43
40954;BME280;26686;50.130;8.710;2023-06-04T15:34:38;100302.03;;;25.56;24.21
40954;BME280;26686;50.130;8.710;2023-06-04T15:39:39;100292.59;;;25.58;24.29
40954;BME280;26686;50.130;8.710;2023-06-04T15:44:42;100293.41;;;25.59;24.48
40954;BME280;26686;50.130;8.710;2023-06-04T15:49:44;100289.66;;;25.60;24.08
40954;BME280;26686;50.130;8.710;2023-06-04T15:54:45;100285.69;;;25.56;24.15
40954;BME280;26686;50.130;8.710;2023-06-04T15:59:47;100283.41;;;25.53;24.61
40954;BME280;26686;50.130;8.710;2023-06-04T16:04:49;100278.84;;;25.47;24.95
40954;BME280;26686;50.130;8.710;2023-06-04T16:09:50;100281.16;;;25.43;24.13
40954;BME280;26686;50.130;8.710;2023-06-04T16:14:52;100269.88;;;25.39;24.36
40954;BME280;26686;50.130;8.710;2023-06-04T16:19:53;100266.56;;;25.37;24.04
40954;BME280;26686;50.130;8.710;2023-06-04T16:24:55;100263.84;;;25.37;24.78
40954;BME280;26686;50.130;8.710;2023-06-04T16:29:57;100264.72;;;25.31;24.93
40954;BME280;26686;50.130;8.710;2023-06-04T16:34:58;100265.31;;;25.33;25.47
40954;BME280;26686;50.130;8.710;2023-06-04T16:40:03;100259.28;;;25.31;24.63
40954;BME280;26686;50.130;8.710;2023-06-04T16:45:06;100264.06;;;25.29;24.74
40954;BME280;26686;50.130;8.710;2023-06-04T16:50:08;100269.94;;;25.26;24.92
40954;BME280;26686;50.130;8.710;2023-06-04T16:55:10;100269.34;;;25.24;25.57
40954;BME280;26686;50.130;8.710;2023-06-04T17:00:12;100267.88;;;25.21;25.79
40954;BME280;26686;50.130;8.710;2023-06-04T17:05:28;100267.31;;;25.13;25.39
40954;BME280;26686;50.130;8.710;2023-06-04T17:10:30;100271.97;;;25.05;25.49
40954;BME280;26686;50.130;8.710;2023-06-04T17:15:33;100264.88;;;24.98;25.82
40954;BME280;26686;50.130;8.710;2023-06-04T17:20:35;100265.38;;;24.88;25.59
40954;BME280;26686;50.130;8.710;2023-06-04T17:25:36;100264.78;;;24.79;25.45
40954;BME280;26686;50.130;8.710;2023-06-04T17:30:38;100267.97;;;24.69;25.59
40954;BME280;26686;50.130;8.710;2023-06-04T17:35:40;100270.50;;;24.64;25.61
40954;BME280;26686;50.130;8.710;2023-06-04T17:40:41;100270.72;;;24.56;25.56
40954;BME280;26686;50.130;8.710;2023-06-04T17:45:43;100271.00;;;24.41;26.22
40954;BME280;26686;50.130;8.710;2023-06-04T17:50:45;100275.16;;;24.44;26.83
40954;BME280;26686;50.130;8.710;2023-06-04T17:55:46;100276.88;;;24.38;26.23
40954;BME280;26686;50.130;8.710;2023-06-04T18:00:48;100282.91;;;24.33;26.52
40954;BME280;26686;50.130;8.710;2023-06-04T18:05:50;100285.28;;;24.23;26.79
40954;BME280;26686;50.130;8.710;2023-06-04T18:10:51;100289.44;;;24.19;26.81
40954;BME280;26686;50.130;8.710;2023-06-04T18:15:53;100288.19;;;24.15;27.38
40954;BME280;26686;50.130;8.710;2023-06-04T18:20:56;100290.31;;;24.13;27.67
40954;BME280;26686;50.130;8.710;2023-06-04T18:25:58;100295.75;;;24.06;27.58
40954;BME280;26686;50.130;8.710;2023-06-04T18:31:00;100302.88;;;24.00;27.92
40954;BME280;26686;50.130;8.710;2023-06-04T18:36:02;100307.91;;;23.90;27.70
40954;BME280;26686;50.130;8.710;2023-06-04T18:41:03;100297.41;;;23.74;28.01
40954;BME280;26686;50.130;8.710;2023-06-04T18:46:05;100306.00;;;23.71;27.96
40954;BME280;26686;50.130;8.710;2023-06-04T18:51:07;100309.13;;;23.68;27.97
40954;BME280;26686;50.130;8.710;2023-06-04T18:56:09;100309.75;;;23.50;28.30
40954;BME280;26686;50.130;8.710;2023-06-04T19:01:10;100314.53;;;23.47;28.14
40954;BME280;26686;50.130;8.710;2023-06-04T19:06:12;100315.31;;;23.28;27.78
40954;BME280;26686;50.130;8.710;2023-06-04T19:11:13;100318.88;;;23.15;28.21
40954;BME280;26686;50.130;8.710;2023-06-04T19:16:15;100325.66;;;23.04;28.20
40954;BME280;26686;50.130;8.710;2023-06-04T19:21:16;100329.25;;;23.05;28.33
40954;BME280;26686;50.130;8.710;2023-06-04T19:26:18;100332.31;;;22.95;27.98
40954;BME280;26686;50.130;8.710;2023-06-04T19:31:20;100342.31;;;22.88;27.92
40954;BME280;26686;50.130;8.710;2023-06-04T19:36:28;100341.88;;;22.84;27.80
40954;BME280;26686;50.130;8.710;2023-06-04T19:41:30;100354.19;;;22.80;28.04
40954;BME280;26686;50.130;8.710;2023-06-04T19:46:31;100359.34;;;22.68;28.60
40954;BME280;26686;50.130;8.710;2023-06-04T19:51:32;100355.16;;;22.66;28.09
40954;BME280;26686;50.130;8.710;2023-06-04T19:56:34;100360.53;;;22.59;28.12
40954;BME280;26686;50.130;8.710;2023-06-04T20:01:36;100372.38;;;22.51;27.81
40954;BME280;26686;50.130;8.710;2023-06-04T20:06:38;100374.28;;;22.51;28.45
40954;BME280;26686;50.130;8.710;2023-06-04T20:11:39;100379.63;;;22.44;28.67
40954;BME280;26686;50.130;8.710;2023-06-04T20:16:41;100379.59;;;22.37;28.61
40954;BME280;26686;50.130;8.710;2023-06-04T20:21:42;100382.91;;;22.33;28.77
40954;BME280;26686;50.130;8.710;2023-06-04T20:26:44;100383.22;;;22.23;28.99
40954;BME280;26686;50.130;8.710;2023-06-04T20:31:46;100383.97;;;22.10;29.46
40954;BME280;26686;50.130;8.710;2023-06-04T20:36:48;100389.72;;;22.00;29.41
40954;BME280;26686;50.130;8.710;2023-06-04T20:41:50;100395.41;;;21.84;29.60
40954;BME280;26686;50.130;8.710;2023-06-04T20:46:51;100397.66;;;21.80;29.88
40954;BME280;26686;50.130;8.710;2023-06-04T20:51:53;100393.28;;;21.79;29.81
40954;BME280;26686;50.130;8.710;2023-06-04T20:56:55;100406.09;;;21.70;30.16
40954;BME280;26686;50.130;8.710;2023-06-04T21:01:56;100396.91;;;21.65;30.32
40954;BME280;26686;50.130;8.710;2023-06-04T21:06:58;100408.88;;;21.56;30.25
40954;BME280;26686;50.130;8.710;2023-06-04T21:11:59;100408.63;;;21.50;30.43
40954;BME280;26686;50.130;8.710;2023-06-04T21:17:02;100405.97;;;21.42;30.48
40954;BME280;26686;50.130;8.710;2023-06-04T21:22:03;100403.56;;;20.81;30.67
40954;BME280;26686;50.130;8.710;2023-06-04T21:27:05;100414.09;;;20.76;31.04
40954;BME280;26686;50.130;8.710;2023-06-04T21:32:07;100413.81;;;20.86;30.87
40954;BME280;26686;50.130;8.710;2023-06-04T21:37:08;100400.88;;;20.81;30.89
40954;BME280;26686;50.130;8.710;2023-06-04T21:42:11;100414.09;;;20.76;31.12
40954;BME280;26686;50.130;8.710;2023-06-04T21:47:12;100417.44;;;20.63;31.36
40954;BME280;26686;50.130;8.710;2023-06-04T21:52:14;100415.47;;;20.57;31.26
40954;BME280;26686;50.130;8.710;2023-06-04T21:57:26;100420.22;;;20.55;31.46
40954;BME280;26686;50.130;8.710;2023-06-04T22:02:27;100417.97;;;20.43;31.21
40954;BME280;26686;50.130;8.710;2023-06-04T22:07:29;100414.69;;;20.33;31.46
40954;BME280;26686;50.130;8.710;2023-06-04T22:12:30;100416.06;;;20.29;31.56
40954;BME280;26686;50.130;8.710;2023-06-04T22:17:32;100416.59;;;20.09;31.33
40954;BME280;26686;50.130;8.710;2023-06-04T22:22:34;100413.78;;;19.80;32.07
40954;BME280;26686;50.130;8.710;2023-06-04T22:27:36;100418.81;;;19.83;31.84
40954;BME280;26686;50.130;8.710;2023-06-04T22:32:37;100413.41;;;19.83;31.80
40954;BME280;26686;50.130;8.710;2023-06-04T22:37:39;100413.03;;;19.86;31.82
40954;BME280;26686;50.130;8.710;2023-06-04T22:42:40;100420.50;;;19.84;31.87
40954;BME280;26686;50.130;8.710;2023-06-04T22:47:42;100417.81;;;19.84;31.79
40954;BME280;26686;50.130;8.710;2023-06-04T22:52:43;100421.88;;;19.80;31.84
40954;BME280;26686;50.130;8.710;2023-06-04T22:57:45;100422.88;;;19.78;31.85
40954;BME280;26686;50.130;8.710;2023-06-04T23:02:46;100422.75;;;19.72;31.87
40954;BME280;26686;50.130;8.710;2023-06-04T23:07:48;100422.75;;;19.72;32.07
40954;BME280;26686;50.130;8.710;2023-06-04T23:12:50;100419.88;;;19.73;31.82
40954;BME280;26686;50.130;8.710;2023-06-04T23:17:52;100411.84;;;19.65;32.18
40954;BME280;26686;50.130;8.710;2023-06-04T23:22:53;100420.59;;;19.67;31.96
40954;BME280;26686;50.130;8.710;2023-06-04T23:27:55;100403.59;;;19.58;31.83
40954;BME280;26686;50.130;8.710;2023-06-04T23:32:56;100412.88;;;19.56;32.06
40954;BME280;26686;50.130;8.710;2023-06-04T23:38:00;100407.00;;;19.52;32.07
40954;BME280;26686;50.130;8.710;2023-06-04T23:43:02;100405.31;;;19.51;31.98
40954;BME280;26686;50.130;8.710;2023-06-04T23:48:03;100401.53;;;19.37;31.90
40954;BME280;26686;50.130;8.710;2023-06-04T23:53:05;100407.56;;;19.39;31.90
40954;BME280;26686;50.130;8.710;2023-06-04T23:58:06;100401.22;;;19.32;31.92
